Time;durP1;ratioP1;P1;durP2;ratioP2;P2;SDS_P1;SDS_P2;PMS_P1;PMS_P2;Temp;Humidity;BMP_temperature;BMP_pressure;BME280_temperature;BME280_humidity;BME280_pressure;Samples;Min_cycle;Max_cycle;Signal;HPM_P1;HPM_P2
2023/03/18 00:02:07;;;;;;;16.77;11.23;;;;;;;13.08;69.14;100621.94;5116419;27;20087;-56
2023/03/18 00:04:34;;;;;;;15.75;11.32;;;;;;;13.07;69.70;100622.91;5115629;27;20019;-56
2023/03/18 00:06:59;;;;;;;15.68;11.52;;;;;;;12.95;70.11;100628.22;5115696;27;20019;-56
2023/03/18 00:09:26;;;;;;;15.10;11.70;;;;;;;13.04;70.54;100633.84;5133906;27;20030;-57
2023/03/18 00:11:52;;;;;;;15.18;12.23;;;;;;;12.98;69.89;100642.31;5134123;27;20018;-56
2023/03/18 00:14:19;;;;;;;15.38;11.70;;;;;;;12.87;70.17;100637.78;5133258;27;20015;-56
2023/03/18 00:16:44;;;;;;;18.17;11.65;;;;;;;12.98;69.56;100636.97;5118805;27;20421;-56
2023/03/18 00:19:10;;;;;;;17.92;11.73;;;;;;;12.85;70.76;100635.25;5119016;27;20275;-56
2023/03/18 00:21:36;;;;;;;17.00;11.88;;;;;;;12.84;70.34;100640.69;5130026;27;20031;-57
2023/03/18 00:24:01;;;;;;;18.10;11.57;;;;;;;12.92;70.39;100628.47;5096081;27;20019;-56
2023/03/18 00:26:27;;;;;;;18.30;13.15;;;;;;;12.80;70.76;100636.56;5109367;28;20392;-56
2023/03/18 00:28:57;;;;;;;19.73;12.73;;;;;;;12.89;69.97;100649.19;5094328;27;20016;-56
2023/03/18 00:31:24;;;;;;;19.95;12.73;;;;;;;12.92;70.16;100648.97;5112367;28;20023;-56
2023/03/18 00:33:50;;;;;;;20.88;12.80;;;;;;;12.91;70.16;100652.59;5112745;27;20158;-56
2023/03/18 00:36:17;;;;;;;19.02;12.95;;;;;;;12.89;70.17;100649.19;5108637;27;20038;-56
2023/03/18 00:38:44;;;;;;;15.55;12.23;;;;;;;12.86;70.14;100644.94;5133455;27;20492;-56
2023/03/18 00:41:12;;;;;;;16.98;12.48;;;;;;;12.81;70.39;100641.75;5111449;27;20145;-56
2023/03/18 00:43:45;;;;;;;14.27;11.57;;;;;;;12.90;70.55;100654.41;5094754;28;20035;-56
2023/03/18 00:46:16;;;;;;;15.80;11.00;;;;;;;12.86;70.58;100663.63;5110999;27;20027;-56
2023/03/18 00:48:43;;;;;;;19.90;12.45;;;;;;;12.88;70.56;100663.50;5114659;27;20072;-56
2023/03/18 00:51:12;;;;;;;18.63;12.32;;;;;;;12.86;70.79;100666.28;5115029;27;20576;-56
2023/03/18 00:53:51;;;;;;;17.20;12.25;;;;;;;12.95;71.00;100676.28;5136620;27;20030;-56
2023/03/18 00:56:20;;;;;;;22.08;11.30;;;;;;;12.85;70.84;100671.72;5116506;27;20018;-58
2023/03/18 00:58:46;;;;;;;22.13;11.60;;;;;;;12.86;70.76;100668.97;5133024;27;20513;-56
2023/03/18 01:01:13;;;;;;;31.83;13.30;;;;;;;12.85;71.21;100672.63;5114225;27;20083;-56
2023/03/18 01:03:43;;;;;;;29.80;12.85;;;;;;;12.79;71.80;100672.19;5132879;27;20166;-56
2023/03/18 01:06:13;;;;;;;22.63;11.80;;;;;;;12.75;72.24;100662.72;5133014;27;20038;-57
2023/03/18 01:08:40;;;;;;;22.00;11.90;;;;;;;12.77;72.36;100671.47;5115269;27;20011;-56
2023/03/18 01:11:09;;;;;;;16.75;12.48;;;;;;;12.74;72.75;100664.56;5114327;27;20031;-56
2023/03/18 01:13:36;;;;;;;22.35;10.93;;;;;;;12.75;73.00;100665.41;5132751;27;20051;-56
2023/03/18 01:16:03;;;;;;;18.98;12.82;;;;;;;12.76;73.33;100656.41;5132288;27;20031;-56
2023/03/18 01:18:29;;;;;;;21.40;11.60;;;;;;;12.65;74.50;100657.25;5114180;28;20516;-56
2023/03/18 01:20:55;;;;;;;20.85;12.88;;;;;;;12.70;75.98;100655.91;5114117;27;20481;-56
2023/03/18 01:23:20;;;;;;;22.25;13.65;;;;;;;12.65;76.63;100657.25;5132756;27;20036;-56
2023/03/18 01:25:45;;;;;;;21.08;14.57;;;;;;;12.62;77.45;100661.00;5132810;27;20094;-57
2023/03/18 01:28:12;;;;;;;19.25;13.40;;;;;;;12.63;78.61;100659.16;5132829;28;20424;-56
2023/03/18 01:30:38;;;;;;;18.38;14.20;;;;;;;12.49;79.52;100657.50;5113668;28;20076;-56
2023/03/18 01:33:06;;;;;;;20.25;14.35;;;;;;;12.46;80.69;100666.59;5114052;28;20019;-56
2023/03/18 01:35:33;;;;;;;21.45;15.43;;;;;;;12.32;81.96;100666.75;5132409;28;20026;-56
2023/03/18 01:37:59;;;;;;;22.13;14.77;;;;;;;12.17;84.08;100659.88;5132584;28;20478;-56
2023/03/18 01:40:25;;;;;;;19.25;15.48;;;;;;;12.15;85.15;100656.50;5113722;28;20030;-56
2023/03/18 01:43:13;;;;;;;24.20;17.05;;;;;;;12.17;86.02;100655.41;5114512;27;20014;-56
2023/03/18 01:45:41;;;;;;;23.65;16.17;;;;;;;12.02;87.36;100649.38;5113683;28;20382;-56
2023/03/18 01:48:16;;;;;;;24.15;16.83;;;;;;;11.96;89.60;100659.63;5114204;28;20015;-56
2023/03/18 01:50:46;;;;;;;23.35;17.42;;;;;;;11.96;89.33;100644.47;5132384;28;20030;-56
2023/03/18 01:53:13;;;;;;;;;;;;;;;12.10;85.40;100654.16;5133064;27;20430;-56
2023/03/18 01:55:40;;;;;;;21.80;17.10;;;;;;;11.88;89.97;100652.16;5132167;28;20056;-56
2023/03/18 01:58:16;;;;;;;26.55;18.02;;;;;;;11.93;90.57;100651.84;5132496;27;20033;-56
2023/03/18 02:00:45;;;;;;;25.10;18.55;;;;;;;11.94;90.64;100654.41;5121588;27;20033;-56
2023/03/18 02:03:11;;;;;;;;;;;;;;;12.11;87.29;100657.66;5153847;27;20067;-56
2023/03/18 02:05:37;;;;;;;26.73;17.13;;;;;;;11.96;91.21;100659.63;5152846;27;19990;-56
2023/03/18 02:08:02;;;;;;;22.15;18.17;;;;;;;11.91;91.92;100656.44;5153069;27;20512;-56
2023/03/18 02:10:30;;;;;;;24.85;17.98;;;;;;;11.87;92.25;100655.81;5134133;27;20026;-56
2023/03/18 02:13:05;;;;;;;25.15;18.27;;;;;;;11.79;92.94;100651.00;5134778;27;20023;-56
2023/03/18 02:15:34;;;;;;;23.15;18.38;;;;;;;11.79;92.79;100656.34;5133872;27;20472;-56
2023/03/18 02:18:16;;;;;;;29.55;19.30;;;;;;;11.88;93.05;100661.97;5146812;27;20121;-56
2023/03/18 02:21:03;;;;;;;24.52;17.60;;;;;;;11.82;93.63;100660.56;5136210;27;20031;-56
2023/03/18 02:23:46;;;;;;;29.85;18.67;;;;;;;11.80;93.79;100660.69;5116175;27;20109;-56
2023/03/18 02:26:31;;;;;;;22.90;19.27;;;;;;;11.81;94.26;100656.22;5120515;27;20031;-56
2023/03/18 02:29:02;;;;;;;27.83;20.15;;;;;;;11.70;95.34;100664.13;5100886;27;20015;-56
2023/03/18 02:31:28;;;;;;;26.60;19.52;;;;;;;11.70;95.53;100674.75;5132176;27;20496;-56
2023/03/18 02:33:54;;;;;;;26.08;20.35;;;;;;;11.60;96.19;100672.75;5136283;27;20025;-56
2023/03/18 02:36:28;;;;;;;26.67;19.58;;;;;;;11.59;96.65;100663.06;5135578;27;20027;-56
2023/03/18 02:38:56;;;;;;;27.42;19.90;;;;;;;11.54;97.78;100683.00;5116852;27;20023;-57
2023/03/18 02:41:24;;;;;;;33.55;22.25;;;;;;;11.49;98.01;100682.44;5135590;27;20023;-56
2023/03/18 02:43:50;;;;;;;27.83;20.55;;;;;;;11.53;97.73;100674.16;5117305;27;20030;-56
2023/03/18 02:46:46;;;;;;;28.88;21.70;;;;;;;11.57;98.30;100678.28;5135191;27;20393;-56
2023/03/18 02:49:13;;;;;;;27.98;21.10;;;;;;;11.50;98.29;100677.03;5117295;27;20027;-56
2023/03/18 02:51:40;;;;;;;28.40;22.38;;;;;;;11.52;98.47;100680.41;5135833;27;20380;-56
2023/03/18 02:54:10;;;;;;;31.48;21.05;;;;;;;11.48;98.48;100686.09;5135291;27;20098;-56
2023/03/18 02:56:41;;;;;;;26.48;21.70;;;;;;;11.43;98.94;100693.53;5135514;27;20027;-56
2023/03/18 02:59:07;;;;;;;30.88;22.35;;;;;;;11.37;99.40;100685.00;5117077;27;20023;-56
2023/03/18 03:01:34;;;;;;;27.17;22.50;;;;;;;11.43;99.46;100690.88;5134642;27;20034;-56
2023/03/18 03:04:05;;;;;;;27.42;21.73;;;;;;;11.40;99.96;100691.94;5135517;27;20050;-56
2023/03/18 03:06:31;;;;;;;27.50;21.88;;;;;;;11.32;100.00;100696.94;5135293;27;20015;-56
2023/03/18 03:08:57;;;;;;;31.27;22.65;;;;;;;11.26;100.00;100703.53;5122749;27;20020;-57
2023/03/18 03:11:23;;;;;;;35.38;22.85;;;;;;;11.32;100.00;100707.56;5114462;27;20081;-56
2023/03/18 03:13:48;;;;;;;27.23;23.23;;;;;;;11.32;100.00;100710.25;5114416;28;20031;-56
2023/03/18 03:16:16;;;;;;;29.35;22.20;;;;;;;11.29;100.00;100713.97;5116610;27;20421;-56
2023/03/18 03:18:42;;;;;;;26.38;22.95;;;;;;;11.36;100.00;100717.06;5109036;28;20047;-56
2023/03/18 03:21:08;;;;;;;30.25;23.58;;;;;;;11.36;100.00;100707.28;5124579;27;20377;-56
2023/03/18 03:23:34;;;;;;;26.98;23.40;;;;;;;11.34;100.00;100706.53;5102564;28;20035;-56
2023/03/18 03:26:01;;;;;;;28.88;22.48;;;;;;;11.36;100.00;100707.28;5115831;27;20030;-56
2023/03/18 03:28:26;;;;;;;25.52;22.67;;;;;;;11.39;100.00;100710.69;5124544;27;20011;-56
2023/03/18 03:30:53;;;;;;;30.75;22.90;;;;;;;11.37;100.00;100705.47;5095380;28;20022;-56
2023/03/18 03:33:19;;;;;;;30.30;22.75;;;;;;;11.40;100.00;100715.91;5128083;27;20024;-56
2023/03/18 03:35:44;;;;;;;31.05;23.52;;;;;;;11.39;100.00;100710.69;5116404;27;20115;-57
2023/03/18 03:38:11;;;;;;;27.55;22.23;;;;;;;11.39;100.00;100716.03;5114333;28;20090;-56
2023/03/18 03:40:37;;;;;;;28.55;22.52;;;;;;;11.43;100.00;100706.84;5113470;27;20410;-56
2023/03/18 03:43:04;;;;;;;32.38;22.38;;;;;;;11.38;100.00;100709.81;5113164;28;20061;-56
2023/03/18 03:45:32;;;;;;;31.58;23.42;;;;;;;11.37;99.80;100708.97;5128746;27;20118;-56
2023/03/18 03:48:00;;;;;;;31.48;24.05;;;;;;;11.37;100.00;100719.63;5099578;27;20024;-56
2023/03/18 03:50:25;;;;;;;27.75;22.30;;;;;;;11.37;100.00;100713.44;5105071;27;20110;-56
2023/03/18 03:52:51;;;;;;;30.42;24.80;;;;;;;11.36;100.00;100725.91;5133504;27;20102;-56
2023/03/18 03:55:19;;;;;;;30.02;24.60;;;;;;;11.34;100.00;100726.97;5125283;27;20020;-56
2023/03/18 03:57:50;;;;;;;27.77;23.25;;;;;;;11.27;100.00;100723.88;5095227;28;20039;-56
2023/03/18 04:00:19;;;;;;;31.63;25.15;;;;;;;11.26;100.00;100716.84;5094539;28;20050;-56
2023/03/18 04:02:46;;;;;;;32.75;23.77;;;;;;;11.23;100.00;100719.72;5095788;28;20023;-56
2023/03/18 04:05:15;;;;;;;27.50;24.02;;;;;;;11.30;100.00;100721.00;5113243;28;20027;-56
2023/03/18 04:07:41;;;;;;;30.02;25.08;;;;;;;11.26;100.00;100731.97;5113757;28;20026;-56
2023/03/18 04:10:09;;;;;;;33.35;24.83;;;;;;;11.26;100.00;100727.47;5125760;27;20027;-56
2023/03/18 04:12:35;;;;;;;29.80;24.17;;;;;;;11.29;100.00;100732.59;5105621;28;20486;-56
2023/03/18 04:15:01;;;;;;;31.65;24.73;;;;;;;11.40;100.00;100733.69;5094555;28;20026;-56
2023/03/18 04:17:26;;;;;;;28.33;23.88;;;;;;;11.42;100.00;100731.78;5110932;27;20473;-56
2023/03/18 04:19:52;;;;;;;30.23;24.50;;;;;;;11.34;100.00;100727.81;5122971;27;20051;-56
2023/03/18 04:22:17;;;;;;;27.17;24.27;;;;;;;11.29;100.00;100731.75;5113623;27;20521;-56
2023/03/18 04:24:43;;;;;;;32.08;24.55;;;;;;;11.27;100.00;100723.03;5114871;27;20213;-56
2023/03/18 04:27:09;;;;;;;30.55;24.88;;;;;;;11.25;100.00;100730.25;5115563;27;20027;-56
2023/03/18 04:29:36;;;;;;;29.15;24.75;;;;;;;11.26;100.00;100737.28;5114467;27;20026;-56
2023/03/18 04:32:02;;;;;;;27.60;24.00;;;;;;;11.22;100.00;100741.97;5133810;27;20435;-56
2023/03/18 04:34:28;;;;;;;28.67;23.90;;;;;;;11.23;100.00;100730.34;5131030;27;20087;-56
2023/03/18 04:36:54;;;;;;;32.53;24.83;;;;;;;11.21;100.00;100732.28;5154219;27;20473;-56
2023/03/18 04:39:20;;;;;;;30.33;25.35;;;;;;;11.09;100.00;100723.31;5134820;27;20046;-56
2023/03/18 04:41:46;;;;;;;29.95;23.77;;;;;;;11.23;100.00;100745.47;5119442;27;20027;-56
2023/03/18 04:44:12;;;;;;;27.25;24.38;;;;;;;11.16;100.00;100730.88;5133375;27;20432;-56
2023/03/18 04:46:39;;;;;;;32.10;25.40;;;;;;;11.10;100.00;100746.31;5114318;27;20035;-56
2023/03/18 04:49:05;;;;;;;31.23;26.55;;;;;;;11.13;100.00;100753.25;5133171;27;20431;-56
2023/03/18 04:51:33;;;;;;;30.90;25.48;;;;;;;11.13;100.00;100753.25;5133683;27;20027;-56
2023/03/18 04:53:58;;;;;;;29.42;25.38;;;;;;;11.13;100.00;100751.44;5133362;27;20415;-56
2023/03/18 04:56:24;;;;;;;33.58;26.50;;;;;;;11.12;100.00;100756.88;5132873;27;20023;-56
2023/03/18 04:58:50;;;;;;;30.95;25.55;;;;;;;11.11;100.00;100753.31;5132821;27;20110;-56
2023/03/18 05:01:17;;;;;;;27.30;24.35;;;;;;;11.10;100.00;100756.97;5132516;27;20027;-56
2023/03/18 05:03:43;;;;;;;28.83;25.73;;;;;;;11.14;100.00;100765.59;5114423;27;20031;-56
2023/03/18 05:06:19;;;;;;;30.85;27.05;;;;;;;11.17;100.00;100772.50;5133108;27;20027;-56
2023/03/18 05:08:44;;;;;;;33.50;27.10;;;;;;;11.14;100.00;100766.44;5115140;27;20474;-56
2023/03/18 05:11:12;;;;;;;31.90;25.92;;;;;;;11.12;100.00;100778.16;5114607;27;20030;-56
2023/03/18 05:13:37;;;;;;;28.35;24.55;;;;;;;11.09;100.00;100773.03;5114646;27;20493;-56
2023/03/18 05:16:03;;;;;;;30.02;25.08;;;;;;;11.11;100.00;100771.13;5132414;27;20081;-56
2023/03/18 05:18:29;;;;;;;28.45;25.35;;;;;;;10.96;100.00;100750.84;5132411;27;20126;-56
2023/03/18 05:20:54;;;;;;;28.63;25.48;;;;;;;11.07;100.00;100759.81;5114295;27;20027;-56
2023/03/18 05:23:19;;;;;;;28.48;23.73;;;;;;;11.06;100.00;100760.78;5114676;27;20037;-56
2023/03/18 05:25:47;;;;;;;30.83;24.75;;;;;;;10.99;100.00;100747.97;5115831;27;20206;-56
2023/03/18 05:28:16;;;;;;;28.23;24.83;;;;;;;11.03;100.00;100741.47;5112496;28;20061;-56
2023/03/18 05:30:42;;;;;;;32.25;25.58;;;;;;;11.02;100.00;100753.94;5113186;28;20034;-56
2023/03/18 05:33:09;;;;;;;28.67;24.27;;;;;;;10.96;100.00;100751.69;5107030;28;20036;-56
2023/03/18 05:35:38;;;;;;;28.45;25.40;;;;;;;10.96;100.00;100759.69;5130205;28;20026;-56
2023/03/18 05:38:06;;;;;;;32.42;25.13;;;;;;;10.96;100.00;100748.19;5106302;28;20096;-56
2023/03/18 05:40:32;;;;;;;33.03;25.77;;;;;;;10.94;100.00;100747.41;5139895;27;20465;-56
2023/03/18 05:42:57;;;;;;;29.77;25.90;;;;;;;10.85;100.00;100746.22;5110819;28;20031;-56
2023/03/18 05:45:23;;;;;;;31.50;25.90;;;;;;;10.89;100.00;100759.22;5111505;28;20585;-56
2023/03/18 05:47:49;;;;;;;28.77;25.67;;;;;;;10.82;100.00;100757.06;5093109;28;20076;-56
2023/03/18 05:50:38;;;;;;;28.33;24.48;;;;;;;10.89;100.00;100785.00;5094363;28;20038;-56
2023/03/18 05:53:04;;;;;;;29.23;25.27;;;;;;;10.86;100.00;100785.19;5097533;28;20039;-56
2023/03/18 05:55:31;;;;;;;32.13;26.80;;;;;;;10.83;100.00;100788.06;5131770;27;20072;-56
2023/03/18 05:57:57;;;;;;;28.73;25.63;;;;;;;10.77;100.00;100786.66;5117442;27;20023;-56
2023/03/18 06:00:24;;;;;;;29.77;25.17;;;;;;;10.73;100.00;100798.41;5114511;27;20023;-57
2023/03/18 06:02:53;;;;;;;27.65;24.75;;;;;;;10.64;100.00;100786.56;5117511;27;20054;-57
2023/03/18 06:05:19;;;;;;;28.17;25.15;;;;;;;10.66;100.00;100800.63;5117728;27;20038;-57
2023/03/18 06:07:45;;;;;;;30.45;25.48;;;;;;;10.64;100.00;100799.88;5136318;27;20382;-57
2023/03/18 06:10:11;;;;;;;27.48;24.05;;;;;;;10.58;100.00;100797.59;5136579;27;20030;-57
2023/03/18 06:12:38;;;;;;;27.55;24.27;;;;;;;10.54;100.00;100795.25;5117795;27;20386;-57
2023/03/18 06:15:06;;;;;;;26.20;23.42;;;;;;;10.59;100.00;100799.31;5117736;27;20023;-57
2023/03/18 06:17:32;;;;;;;28.55;25.55;;;;;;;10.59;100.00;100791.34;5136082;27;20020;-57
2023/03/18 06:19:58;;;;;;;28.70;25.65;;;;;;;10.59;100.00;100796.66;5117405;27;20409;-57
2023/03/18 06:22:24;;;;;;;31.50;27.17;;;;;;;10.60;100.00;100798.38;5136283;27;20019;-57
2023/03/18 06:24:49;;;;;;;30.75;25.88;;;;;;;10.57;100.00;100795.91;5117275;27;20027;-57
2023/03/18 06:27:14;;;;;;;27.52;24.58;;;;;;;10.62;100.00;100795.63;5135999;27;20027;-57
2023/03/18 06:29:40;;;;;;;28.63;25.63;;;;;;;10.63;100.00;100794.66;5135600;27;20023;-57
2023/03/18 06:32:06;;;;;;;26.20;23.50;;;;;;;10.44;100.00;100795.84;5135376;27;20055;-57
2023/03/18 06:34:34;;;;;;;27.00;23.88;;;;;;;10.58;100.00;100800.25;5135754;27;20240;-57
2023/03/18 06:36:59;;;;;;;29.17;24.73;;;;;;;10.60;100.00;100805.50;5135812;27;20629;-57
2023/03/18 06:39:26;;;;;;;29.02;23.88;;;;;;;10.60;100.00;100811.66;5117057;27;20032;-57
2023/03/18 06:41:53;;;;;;;26.27;23.60;;;;;;;10.61;100.00;100823.16;5135935;27;20373;-57
2023/03/18 06:44:20;;;;;;;27.42;24.60;;;;;;;10.55;100.00;100818.22;5116513;27;20027;-57
2023/03/18 06:46:45;;;;;;;26.60;23.88;;;;;;;10.61;100.00;100824.00;5135424;27;20520;-58
2023/03/18 06:49:11;;;;;;;27.98;25.15;;;;;;;10.60;100.00;100809.00;5135654;27;20023;-57
2023/03/18 06:51:37;;;;;;;28.65;25.58;;;;;;;10.61;100.00;100823.16;5135495;27;20050;-56
2023/03/18 06:54:02;;;;;;;29.67;24.95;;;;;;;10.60;100.00;100827.63;5117244;27;20030;-57
2023/03/18 06:56:29;;;;;;;27.05;24.20;;;;;;;10.62;100.00;100824.88;5135529;27;20019;-57
2023/03/18 06:58:54;;;;;;;27.35;24.50;;;;;;;10.72;100.00;100830.47;5135082;27;20479;-57
2023/03/18 07:01:20;;;;;;;27.08;24.17;;;;;;;10.68;100.00;100828.00;5116262;27;20113;-57
2023/03/18 07:03:45;;;;;;;27.23;24.40;;;;;;;10.75;100.00;100830.25;5134523;27;20033;-57
2023/03/18 07:06:11;;;;;;;27.70;24.75;;;;;;;10.77;100.00;100837.19;5117068;27;20023;-57
2023/03/18 07:08:37;;;;;;;28.75;25.65;;;;;;;10.77;100.00;100831.03;5135511;27;20023;-56
2023/03/18 07:11:03;;;;;;;28.95;26.05;;;;;;;10.87;100.00;100845.44;5116987;27;20027;-57
2023/03/18 07:13:29;;;;;;;26.42;23.63;;;;;;;10.90;100.00;100842.56;5116837;27;20393;-56
2023/03/18 07:15:57;;;;;;;26.45;23.73;;;;;;;11.00;100.00;100848.16;5134558;27;20023;-58
2023/03/18 07:18:23;;;;;;;26.42;23.85;;;;;;;11.06;100.00;100845.97;5134873;27;20047;-56
2023/03/18 07:20:49;;;;;;;26.45;23.08;;;;;;;11.09;100.00;100859.06;5134916;27;20462;-57
2023/03/18 07:23:14;;;;;;;25.77;23.05;;;;;;;11.13;100.00;100857.91;5116849;27;20506;-57
2023/03/18 07:25:41;;;;;;;27.23;24.27;;;;;;;11.21;100.00;100848.56;5134881;27;20058;-57
2023/03/18 07:28:06;;;;;;;27.38;24.67;;;;;;;11.15;99.71;100855.16;5134818;27;20031;-56
2023/03/18 07:30:32;;;;;;;27.95;23.38;;;;;;;11.19;99.19;100853.97;5134367;27;20035;-57
2023/03/18 07:32:58;;;;;;;26.70;23.92;;;;;;;11.29;99.10;100856.88;5134768;27;20049;-57
2023/03/18 07:35:24;;;;;;;26.58;23.92;;;;;;;11.31;98.69;100860.31;5116351;27;20055;-57
2023/03/18 07:37:50;;;;;;;27.38;24.70;;;;;;;11.37;98.91;100859.91;5134629;27;20031;-57
2023/03/18 07:40:16;;;;;;;26.00;23.38;;;;;;;11.47;99.01;100870.78;5134719;27;20508;-56
2023/03/18 07:42:41;;;;;;;25.23;22.55;;;;;;;11.53;98.10;100876.59;5116181;27;20039;-57
2023/03/18 07:45:08;;;;;;;25.85;23.35;;;;;;;11.54;97.41;100883.63;5133884;27;20030;-57
2023/03/18 07:47:33;;;;;;;26.45;23.52;;;;;;;11.61;97.42;100881.38;5115815;27;20462;-57
2023/03/18 07:49:59;;;;;;;26.27;23.50;;;;;;;11.65;97.68;100884.69;5134217;27;20051;-57
2023/03/18 07:52:24;;;;;;;25.40;23.00;;;;;;;11.71;96.26;100884.31;5116043;27;20027;-57
2023/03/18 07:54:50;;;;;;;26.15;22.85;;;;;;;11.71;95.61;100871.84;5134201;27;20023;-57
2023/03/18 07:57:16;;;;;;;23.77;21.38;;;;;;;11.81;95.91;100888.03;5115657;27;20462;-57
2023/03/18 07:59:41;;;;;;;24.60;22.05;;;;;;;11.93;95.24;100876.56;5133861;27;20019;-57
2023/03/18 08:02:07;;;;;;;22.60;20.33;;;;;;;12.04;94.27;100879.38;5134165;27;20023;-57
2023/03/18 08:04:36;;;;;;;22.13;19.85;;;;;;;12.18;93.48;100878.41;5115711;27;20034;-57
2023/03/18 08:07:02;;;;;;;21.37;19.20;;;;;;;12.26;91.76;100867.19;5134182;27;20542;-57
2023/03/18 08:09:27;;;;;;;22.55;20.25;;;;;;;12.33;92.12;100865.84;5134311;27;20261;-57
2023/03/18 08:11:53;;;;;;;20.63;18.50;;;;;;;12.40;90.98;100869.75;5115515;27;20064;-57
2023/03/18 08:14:18;;;;;;;20.88;18.80;;;;;;;12.52;90.38;100867.19;5133684;27;20409;-57
2023/03/18 08:16:44;;;;;;;20.50;17.80;;;;;;;12.54;89.42;100859.94;5115266;27;20249;-57
2023/03/18 08:19:09;;;;;;;18.83;16.95;;;;;;;12.59;89.46;100839.09;5115400;27;20050;-57
2023/03/18 08:21:35;;;;;;;19.58;16.05;;;;;;;12.91;88.26;100869.69;5115410;27;20501;-57
2023/03/18 08:24:01;;;;;;;18.17;16.48;;;;;;;12.98;86.70;100867.41;5115291;27;20012;-57
2023/03/18 08:26:26;;;;;;;17.52;15.68;;;;;;;13.17;86.84;100862.41;5115096;27;20023;-57
2023/03/18 08:28:52;;;;;;;19.83;16.38;;;;;;;13.10;85.53;100845.16;5133690;27;20474;-57
2023/03/18 08:31:17;;;;;;;16.17;14.68;;;;;;;13.34;83.88;100871.03;5114717;27;20473;-57
2023/03/18 08:33:43;;;;;;;16.88;15.35;;;;;;;13.61;85.49;100870.78;5133573;27;20099;-57
2023/03/18 08:36:08;;;;;;;17.67;15.43;;;;;;;13.70;83.53;100877.25;5133709;27;20031;-57
2023/03/18 08:38:34;;;;;;;16.63;14.48;;;;;;;13.67;82.79;100885.50;5133458;27;20121;-57
2023/03/18 08:41:00;;;;;;;16.73;15.13;;;;;;;13.76;82.52;100891.00;5132344;27;20015;-57
2023/03/18 08:43:26;;;;;;;15.27;13.75;;;;;;;13.72;81.07;100884.19;5115081;27;20405;-57
2023/03/18 08:45:54;;;;;;;15.95;14.05;;;;;;;13.88;81.37;100891.91;5114246;27;20027;-57
2023/03/18 08:48:21;;;;;;;15.93;14.20;;;;;;;13.97;80.59;100901.03;5114939;27;20011;-57
2023/03/18 08:50:47;;;;;;;14.27;13.02;;;;;;;14.00;80.00;100903.47;5133101;27;20268;-57
2023/03/18 08:53:12;;;;;;;16.90;13.95;;;;;;;14.12;80.93;100904.34;5115018;27;20087;-57
2023/03/18 08:55:38;;;;;;;15.57;13.63;;;;;;;14.10;79.13;100907.16;5114525;27;20034;-57
2023/03/18 08:58:04;;;;;;;15.98;13.20;;;;;;;14.13;79.88;100906.91;5114660;27;20422;-57
2023/03/18 09:00:32;;;;;;;14.65;13.05;;;;;;;14.09;79.51;100887.59;5113927;27;20026;-57
2023/03/18 09:02:57;;;;;;;15.77;13.35;;;;;;;14.19;78.43;100898.41;5132941;27;20030;-58
2023/03/18 09:05:23;;;;;;;14.18;12.68;;;;;;;14.35;77.47;100899.91;5132885;27;20027;-57
2023/03/18 09:07:50;;;;;;;14.48;12.90;;;;;;;14.42;77.66;100904.66;5114471;27;20019;-57
2023/03/18 09:10:17;;;;;;;13.68;12.40;;;;;;;14.53;77.58;100902.03;5132411;27;20087;-57
2023/03/18 09:12:44;;;;;;;14.48;13.05;;;;;;;14.54;77.11;100916.25;5132891;27;20130;-57
2023/03/18 09:15:11;;;;;;;14.02;12.68;;;;;;;14.71;76.75;100920.28;5114196;27;20038;-57
2023/03/18 09:17:41;;;;;;;14.48;12.95;;;;;;;14.68;76.01;100907.16;5133223;27;20023;-57
2023/03/18 09:20:11;;;;;;;14.75;12.07;;;;;;;14.77;76.66;100903.75;5132495;27;20167;-57
2023/03/18 09:22:41;;;;;;;13.88;12.30;;;;;;;14.71;75.29;100904.22;5114636;27;20023;-57
2023/03/18 09:25:07;;;;;;;13.70;12.27;;;;;;;14.72;78.77;100901.41;5096994;27;20019;-57
2023/03/18 09:27:33;;;;;;;13.60;11.77;;;;;;;14.85;77.48;100897.75;5132691;27;20040;-57
2023/03/18 09:30:01;;;;;;;12.73;11.38;;;;;;;14.89;75.89;100904.56;5132143;27;20019;-57
2023/03/18 09:32:28;;;;;;;12.02;10.80;;;;;;;15.00;74.11;100912.59;5132692;28;20155;-57
2023/03/18 09:34:54;;;;;;;13.23;10.88;;;;;;;15.18;73.72;100913.78;5132584;28;20106;-57
2023/03/18 09:37:20;;;;;;;11.43;10.20;;;;;;;15.31;72.80;100912.78;5114297;28;20110;-57
2023/03/18 09:39:46;;;;;;;10.82;9.82;;;;;;;15.38;72.23;100909.47;5131983;28;20023;-57
2023/03/18 09:42:42;;;;;;;10.68;9.13;;;;;;;15.59;72.43;100903.31;5132835;27;20023;-57
2023/03/18 09:45:18;;;;;;;12.80;10.25;;;;;;;15.78;71.47;100908.88;5113906;28;20541;-57
2023/03/18 09:47:52;;;;;;;10.43;9.30;;;;;;;15.86;72.18;100910.91;5114233;28;20122;-57
2023/03/18 09:50:30;;;;;;;12.38;10.10;;;;;;;15.86;70.37;100902.88;5114021;28;20114;-57
2023/03/18 09:53:02;;;;;;;10.13;8.15;;;;;;;15.94;69.55;100911.09;5113810;28;20020;-57
2023/03/18 09:55:40;;;;;;;7.85;6.97;;;;;;;16.15;70.12;100902.19;5132466;28;20092;-57
2023/03/18 09:58:36;;;;;;;9.13;7.50;;;;;;;16.52;69.49;100899.88;5132460;28;20055;-57
2023/03/18 10:01:05;;;;;;;8.45;6.32;;;;;;;16.71;66.90;100899.97;5124929;28;20069;-57
2023/03/18 10:03:36;;;;;;;11.25;6.45;;;;;;;16.74;65.32;100893.47;5132577;27;20046;-57
2023/03/18 10:06:15;;;;;;;9.07;6.55;;;;;;;16.62;66.97;100911.53;5132317;28;20019;-57
2023/03/18 10:08:51;;;;;;;9.23;7.00;;;;;;;16.58;66.33;100915.44;5132287;27;20019;-57
2023/03/18 10:11:25;;;;;;;11.32;6.10;;;;;;;16.51;63.79;100919.66;5114064;28;20030;-57
2023/03/18 10:13:59;;;;;;;8.18;5.60;;;;;;;16.57;63.91;100917.28;5113849;27;20023;-57
2023/03/18 10:16:30;;;;;;;7.75;5.45;;;;;;;16.79;63.77;100927.03;5131936;28;20504;-57
2023/03/18 10:18:56;;;;;;;8.07;6.78;;;;;;;16.88;63.72;100917.28;5131937;28;20494;-57
2023/03/18 10:22:23;;;;;;;6.47;5.55;;;;;;;17.32;64.20;100912.47;5113845;28;20027;-57
2023/03/18 10:25:24;;;;;;;6.82;5.07;;;;;;;17.40;62.37;100911.78;5021108;28;20029;-57
2023/03/18 10:28:02;;;;;;;6.07;4.63;;;;;;;17.34;62.63;100923.94;5048973;28;20033;-57
2023/03/18 10:30:53;;;;;;;6.10;5.22;;;;;;;17.49;61.97;100917.16;5127333;28;20110;-57
2023/03/18 10:33:33;;;;;;;7.85;4.93;;;;;;;17.59;60.59;100919.00;5132341;28;20114;-57
2023/03/18 10:36:17;;;;;;;8.60;4.88;;;;;;;17.64;59.97;100916.75;5132056;27;20027;-57
2023/03/18 10:38:46;;;;;;;8.13;5.25;;;;;;;17.73;59.48;100915.88;5100475;27;20046;-57
2023/03/18 10:41:16;;;;;;;7.57;5.10;;;;;;;17.69;57.65;100911.81;5135914;27;20088;-57
2023/03/18 10:43:43;;;;;;;8.23;4.53;;;;;;;17.69;57.60;100901.03;5117581;27;20500;-57
2023/03/18 10:46:14;;;;;;;8.18;4.35;;;;;;;17.59;57.57;100901.03;5116964;27;20030;-57
2023/03/18 10:48:49;;;;;;;6.57;3.65;;;;;;;17.35;59.50;100904.13;5133328;27;20116;-57
2023/03/18 10:51:18;;;;;;;7.93;4.43;;;;;;;17.24;59.65;100896.19;5116821;27;20049;-57
2023/03/18 10:54:02;;;;;;;;;;;;;;;17.30;59.71;100898.31;5117469;27;20020;-57
2023/03/18 10:56:31;;;;;;;7.32;4.43;;;;;;;16.77;58.42;100898.59;5116979;27;20316;-57
2023/03/18 10:58:57;;;;;;;7.40;4.97;;;;;;;16.61;59.88;100898.22;5136395;27;20029;-57
2023/03/18 11:01:27;;;;;;;9.25;5.43;;;;;;;16.52;61.43;100902.56;5135136;27;20068;-57
2023/03/18 11:04:00;;;;;;;9.40;6.00;;;;;;;16.45;59.84;100906.78;5119675;27;20042;-57
2023/03/18 11:06:40;;;;;;;8.20;5.60;;;;;;;16.32;60.82;100909.66;5148408;27;20027;-57
2023/03/18 11:09:09;;;;;;;8.63;6.13;;;;;;;16.19;60.71;100911.69;5126430;27;20492;-57
2023/03/18 11:11:38;;;;;;;9.07;6.40;;;;;;;16.08;60.92;100904.56;5135053;27;20103;-57
2023/03/18 11:14:05;;;;;;;7.88;6.13;;;;;;;16.11;62.13;100904.28;5126317;27;20023;-57
2023/03/18 11:16:37;;;;;;;8.38;5.22;;;;;;;16.10;62.92;100903.44;5130518;27;20027;-57